航空気象通報

ウインドサーファーのための航空気象通報による風予報です。

4/5-6の航空気象通報(国内、海外)

2008年04月05日 19時23分10秒 | TAF
羽田空港
TAF RJTT 050839Z 051812 02012KT 9999 FEW030 SCT050
BECMG 0306 12010KT
日本時間6日03-12時:020度から12ノットの風
12-15時:風が変化
15-21時:120度から10ノットの風


那覇空港
TAF ROAH 050847Z 051812 24008KT 9999 FEW015 SCT030
日本時間6日03-21時:240度から8ノットの風


マウイのカフルイ空港
PHOG 051129Z 051212 08010KT P6SM FEW035 SCT060
FM1900 04014G20KT P6SM FEW060
FM0500 03011KT P6SM FEW035 SCT060
ハワイ時間5日02-09時:080度から10ノットの風
09-19時:040度から14ノット、突風20ノット
19時-6日02時:030度から11ノットの風


サイパン空港
PGSN 051120Z 051212 06011G17KT P6SM VCSH FEW020 SCT040
マリアナ時間5日22時-6日22時:060度から11ノット、突風17ノット
コメント
この記事をはてなブックマークに追加